sensor_id;sensor_type;location;lat;lon;timestamp;P1;durP1;ratioP1;P2;durP2;ratioP2
49326;SDS011;35819;44.498;0.166;2022-09-25T08:19:22;7.65;;;4.50;;
49326;SDS011;35819;44.498;0.166;2022-09-25T08:22:43;5.43;;;4.93;;
49326;SDS011;35819;44.498;0.166;2022-09-25T08:25:50;5.15;;;4.78;;
49326;SDS011;35819;44.498;0.166;2022-09-25T08:28:57;6.07;;;5.30;;
49326;SDS011;35819;44.498;0.166;2022-09-25T08:31:47;4.85;;;4.40;;
49326;SDS011;35819;44.498;0.166;2022-09-25T08:34:31;9.88;;;4.38;;
49326;SDS011;35819;44.498;0.166;2022-09-25T08:37:19;5.23;;;4.73;;
49326;SDS011;35819;44.498;0.166;2022-09-25T08:39:57;4.47;;;3.72;;
49326;SDS011;35819;44.498;0.166;2022-09-25T08:42:44;5.65;;;5.00;;
49326;SDS011;35819;44.498;0.166;2022-09-25T08:45:39;4.75;;;4.45;;
49326;SDS011;35819;44.498;0.166;2022-09-25T08:51:38;5.75;;;5.20;;
49326;SDS011;35819;44.498;0.166;2022-09-25T08:54:12;7.00;;;5.00;;
49326;SDS011;35819;44.498;0.166;2022-09-25T08:56:48;8.52;;;3.88;;
49326;SDS011;35819;44.498;0.166;2022-09-25T09:02:15;23.13;;;12.57;;
49326;SDS011;35819;44.498;0.166;2022-09-25T09:04:48;12.57;;;9.55;;
49326;SDS011;35819;44.498;0.166;2022-09-25T09:09:49;4.43;;;3.83;;
49326;SDS011;35819;44.498;0.166;2022-09-25T09:12:32;8.05;;;6.32;;
49326;SDS011;35819;44.498;0.166;2022-09-25T09:15:24;4.35;;;4.05;;
49326;SDS011;35819;44.498;0.166;2022-09-25T09:18:13;4.55;;;4.20;;
49326;SDS011;35819;44.498;0.166;2022-09-25T09:23:30;3.78;;;3.53;;
49326;SDS011;35819;44.498;0.166;2022-09-25T09:26:04;3.15;;;2.42;;
49326;SDS011;35819;44.498;0.166;2022-09-25T09:42:24;7.68;;;2.28;;
49326;SDS011;35819;44.498;0.166;2022-09-25T09:45:14;2.97;;;1.50;;
49326;SDS011;35819;44.498;0.166;2022-09-25T09:50:43;2.83;;;2.63;;
49326;SDS011;35819;44.498;0.166;2022-09-25T09:56:04;7.32;;;2.40;;
49326;SDS011;35819;44.498;0.166;2022-09-25T10:01:14;3.60;;;2.20;;
49326;SDS011;35819;44.498;0.166;2022-09-25T10:03:43;2.15;;;1.52;;
49326;SDS011;35819;44.498;0.166;2022-09-25T10:06:13;3.87;;;3.53;;
49326;SDS011;35819;44.498;0.166;2022-09-25T10:08:41;3.35;;;2.13;;
49326;SDS011;35819;44.498;0.166;2022-09-25T10:11:14;2.20;;;2.00;;
49326;SDS011;35819;44.498;0.166;2022-09-25T10:13:43;3.45;;;1.83;;
49326;SDS011;35819;44.498;0.166;2022-09-25T10:16:11;2.58;;;2.00;;
49326;SDS011;35819;44.498;0.166;2022-09-25T10:27:35;5.53;;;1.88;;
49326;SDS011;35819;44.498;0.166;2022-09-25T10:30:11;1.40;;;0.70;;
49326;SDS011;35819;44.498;0.166;2022-09-25T10:38:04;3.05;;;2.72;;
49326;SDS011;35819;44.498;0.166;2022-09-25T10:40:41;3.80;;;1.25;;
49326;SDS011;35819;44.498;0.166;2022-09-25T10:43:18;2.95;;;1.65;;
49326;SDS011;35819;44.498;0.166;2022-09-25T10:45:48;2.88;;;1.30;;
49326;SDS011;35819;44.498;0.166;2022-09-25T10:48:35;1.77;;;0.73;;
49326;SDS011;35819;44.498;0.166;2022-09-25T10:51:21;2.30;;;1.92;;
49326;SDS011;35819;44.498;0.166;2022-09-25T10:53:49;4.70;;;3.10;;
49326;SDS011;35819;44.498;0.166;2022-09-25T10:56:17;9.05;;;3.58;;
49326;SDS011;35819;44.498;0.166;2022-09-25T10:58:50;3.47;;;1.63;;
49326;SDS011;35819;44.498;0.166;2022-09-25T11:01:19;1.63;;;0.80;;
49326;SDS011;35819;44.498;0.166;2022-09-25T11:03:53;3.78;;;0.77;;
49326;SDS011;35819;44.498;0.166;2022-09-25T11:09:04;1.60;;;0.70;;
49326;SDS011;35819;44.498;0.166;2022-09-25T11:11:33;1.60;;;1.50;;
49326;SDS011;35819;44.498;0.166;2022-09-25T11:14:01;1.75;;;1.00;;
49326;SDS011;35819;44.498;0.166;2022-09-25T11:19:14;4.25;;;2.55;;
49326;SDS011;35819;44.498;0.166;2022-09-25T11:21:53;0.88;;;0.80;;
49326;SDS011;35819;44.498;0.166;2022-09-25T11:29:56;0.57;;;0.55;;
49326;SDS011;35819;44.498;0.166;2022-09-25T11:38:00;2.13;;;0.93;;
49326;SDS011;35819;44.498;0.166;2022-09-25T11:43:37;0.90;;;0.60;;
49326;SDS011;35819;44.498;0.166;2022-09-25T11:46:25;1.73;;;1.02;;
49326;SDS011;35819;44.498;0.166;2022-09-25T11:49:08;1.05;;;0.40;;
49326;SDS011;35819;44.498;0.166;2022-09-25T11:54:19;1.30;;;0.50;;
49326;SDS011;35819;44.498;0.166;2022-09-25T11:57:01;7.10;;;1.42;;
49326;SDS011;35819;44.498;0.166;2022-09-25T12:16:39;1.13;;;0.80;;
49326;SDS011;35819;44.498;0.166;2022-09-25T12:19:30;1.50;;;0.80;;
49326;SDS011;35819;44.498;0.166;2022-09-25T12:22:09;1.17;;;0.93;;
49326;SDS011;35819;44.498;0.166;2022-09-25T12:27:17;1.63;;;0.60;;
49326;SDS011;35819;44.498;0.166;2022-09-25T12:38:10;0.77;;;0.50;;
49326;SDS011;35819;44.498;0.166;2022-09-25T12:40:46;2.92;;;1.00;;
49326;SDS011;35819;44.498;0.166;2022-09-25T12:43:40;1.85;;;0.70;;
49326;SDS011;35819;44.498;0.166;2022-09-25T12:49:11;0.63;;;0.43;;
49326;SDS011;35819;44.498;0.166;2022-09-25T12:51:48;2.60;;;0.95;;
49326;SDS011;35819;44.498;0.166;2022-09-25T12:57:01;1.45;;;0.93;;
49326;SDS011;35819;44.498;0.166;2022-09-25T12:59:45;1.75;;;0.50;;
49326;SDS011;35819;44.498;0.166;2022-09-25T13:05:09;3.80;;;0.68;;
49326;SDS011;35819;44.498;0.166;2022-09-25T13:12:43;3.78;;;0.85;;
49326;SDS011;35819;44.498;0.166;2022-09-25T13:15:12;0.57;;;0.28;;
49326;SDS011;35819;44.498;0.166;2022-09-25T13:17:41;5.70;;;1.35;;
49326;SDS011;35819;44.498;0.166;2022-09-25T13:23:14;1.25;;;0.90;;
49326;SDS011;35819;44.498;0.166;2022-09-25T13:25:49;0.25;;;0.25;;
49326;SDS011;35819;44.498;0.166;2022-09-25T13:28:25;6.88;;;1.48;;
49326;SDS011;35819;44.498;0.166;2022-09-25T13:36:15;0.68;;;0.20;;
49326;SDS011;35819;44.498;0.166;2022-09-25T13:38:55;0.55;;;0.55;;
49326;SDS011;35819;44.498;0.166;2022-09-25T13:41:55;1.27;;;0.70;;
49326;SDS011;35819;44.498;0.166;2022-09-25T14:00:50;1.45;;;1.00;;
49326;SDS011;35819;44.498;0.166;2022-09-25T14:06:18;4.82;;;0.77;;
49326;SDS011;35819;44.498;0.166;2022-09-25T14:08:49;4.13;;;1.38;;
49326;SDS011;35819;44.498;0.166;2022-09-25T14:11:18;1.08;;;0.60;;
49326;SDS011;35819;44.498;0.166;2022-09-25T14:13:49;2.50;;;1.30;;
49326;SDS011;35819;44.498;0.166;2022-09-25T14:16:22;7.25;;;0.50;;
49326;SDS011;35819;44.498;0.166;2022-09-25T14:18:52;1.05;;;0.47;;
49326;SDS011;35819;44.498;0.166;2022-09-25T14:21:20;0.97;;;0.90;;
49326;SDS011;35819;44.498;0.166;2022-09-25T14:23:49;1.85;;;0.40;;
49326;SDS011;35819;44.498;0.166;2022-09-25T14:26:19;0.43;;;0.43;;
49326;SDS011;35819;44.498;0.166;2022-09-25T14:28:49;4.75;;;1.20;;
49326;SDS011;35819;44.498;0.166;2022-09-25T14:34:14;4.43;;;1.20;;
49326;SDS011;35819;44.498;0.166;2022-09-25T14:45:15;1.13;;;0.63;;
49326;SDS011;35819;44.498;0.166;2022-09-25T14:48:04;0.55;;;0.50;;
49326;SDS011;35819;44.498;0.166;2022-09-25T14:50:41;0.82;;;0.30;;
49326;SDS011;35819;44.498;0.166;2022-09-25T14:53:11;1.30;;;0.68;;
49326;SDS011;35819;44.498;0.166;2022-09-25T14:55:43;0.17;;;0.15;;
49326;SDS011;35819;44.498;0.166;2022-09-25T14:58:15;0.43;;;0.32;;
49326;SDS011;35819;44.498;0.166;2022-09-25T15:00:45;0.52;;;0.20;;
49326;SDS011;35819;44.498;0.166;2022-09-25T15:03:15;1.05;;;0.68;;
49326;SDS011;35819;44.498;0.166;2022-09-25T15:05:45;0.65;;;0.30;;
49326;SDS011;35819;44.498;0.166;2022-09-25T15:08:20;0.57;;;0.43;;
49326;SDS011;35819;44.498;0.166;2022-09-25T15:10:48;0.10;;;0.10;;
49326;SDS011;35819;44.498;0.166;2022-09-25T15:13:25;0.20;;;0.10;;
49326;SDS011;35819;44.498;0.166;2022-09-25T15:15:57;2.95;;;0.30;;
49326;SDS011;35819;44.498;0.166;2022-09-25T15:18:43;1.38;;;0.25;;
49326;SDS011;35819;44.498;0.166;2022-09-25T15:21:17;0.57;;;0.57;;
49326;SDS011;35819;44.498;0.166;2022-09-25T15:23:49;0.90;;;0.30;;
49326;SDS011;35819;44.498;0.166;2022-09-25T15:26:17;1.30;;;0.50;;
49326;SDS011;35819;44.498;0.166;2022-09-25T15:28:43;0.70;;;0.20;;
49326;SDS011;35819;44.498;0.166;2022-09-25T15:31:10;0.70;;;0.43;;
49326;SDS011;35819;44.498;0.166;2022-09-25T15:33:36;0.20;;;0.20;;
49326;SDS011;35819;44.498;0.166;2022-09-25T15:36:17;1.42;;;0.70;;
49326;SDS011;35819;44.498;0.166;2022-09-25T15:41:20;2.53;;;0.73;;
49326;SDS011;35819;44.498;0.166;2022-09-25T15:43:47;0.88;;;0.32;;
49326;SDS011;35819;44.498;0.166;2022-09-25T15:49:01;0.93;;;0.30;;
49326;SDS011;35819;44.498;0.166;2022-09-25T15:51:29;0.40;;;0.40;;
49326;SDS011;35819;44.498;0.166;2022-09-25T15:54:01;1.00;;;0.55;;
49326;SDS011;35819;44.498;0.166;2022-09-25T15:56:34;1.83;;;0.93;;
49326;SDS011;35819;44.498;0.166;2022-09-25T16:01:42;2.17;;;1.45;;
49326;SDS011;35819;44.498;0.166;2022-09-25T16:04:27;1.00;;;0.88;;
49326;SDS011;35819;44.498;0.166;2022-09-25T16:07:32;7.50;;;1.65;;
49326;SDS011;35819;44.498;0.166;2022-09-25T16:20:28;1.15;;;0.60;;
49326;SDS011;35819;44.498;0.166;2022-09-25T16:22:56;0.68;;;0.35;;
49326;SDS011;35819;44.498;0.166;2022-09-25T16:25:29;1.25;;;0.70;;
49326;SDS011;35819;44.498;0.166;2022-09-25T16:28:01;0.80;;;0.70;;
49326;SDS011;35819;44.498;0.166;2022-09-25T16:30:45;1.48;;;0.40;;
49326;SDS011;35819;44.498;0.166;2022-09-25T16:33:24;1.80;;;0.60;;
49326;SDS011;35819;44.498;0.166;2022-09-25T16:36:03;0.60;;;0.43;;
49326;SDS011;35819;44.498;0.166;2022-09-25T16:38:36;4.47;;;0.55;;
49326;SDS011;35819;44.498;0.166;2022-09-25T16:43:35;1.53;;;0.80;;
49326;SDS011;35819;44.498;0.166;2022-09-25T16:46:11;0.45;;;0.20;;
49326;SDS011;35819;44.498;0.166;2022-09-25T16:48:40;1.17;;;1.08;;
49326;SDS011;35819;44.498;0.166;2022-09-25T16:51:20;1.20;;;0.80;;
49326;SDS011;35819;44.498;0.166;2022-09-25T16:53:49;1.52;;;0.50;;
49326;SDS011;35819;44.498;0.166;2022-09-25T16:56:19;2.35;;;0.88;;
49326;SDS011;35819;44.498;0.166;2022-09-25T16:58:50;2.08;;;1.15;;
49326;SDS011;35819;44.498;0.166;2022-09-25T17:01:16;1.02;;;0.80;;
49326;SDS011;35819;44.498;0.166;2022-09-25T17:03:43;1.48;;;0.25;;
49326;SDS011;35819;44.498;0.166;2022-09-25T17:06:16;8.05;;;2.28;;
49326;SDS011;35819;44.498;0.166;2022-09-25T17:08:42;2.15;;;0.60;;
49326;SDS011;35819;44.498;0.166;2022-09-25T17:11:10;2.53;;;1.95;;
49326;SDS011;35819;44.498;0.166;2022-09-25T17:13:37;2.13;;;1.55;;
49326;SDS011;35819;44.498;0.166;2022-09-25T17:16:05;2.35;;;1.45;;
49326;SDS011;35819;44.498;0.166;2022-09-25T17:18:31;2.28;;;1.10;;
49326;SDS011;35819;44.498;0.166;2022-09-25T17:20:58;1.77;;;0.85;;
49326;SDS011;35819;44.498;0.166;2022-09-25T17:23:26;0.85;;;0.28;;
49326;SDS011;35819;44.498;0.166;2022-09-25T17:26:06;2.72;;;1.35;;
49326;SDS011;35819;44.498;0.166;2022-09-25T17:28:47;0.60;;;0.60;;
49326;SDS011;35819;44.498;0.166;2022-09-25T17:31:15;2.40;;;1.70;;
49326;SDS011;35819;44.498;0.166;2022-09-25T17:33:44;0.70;;;0.70;;
49326;SDS011;35819;44.498;0.166;2022-09-25T17:36:12;1.38;;;1.27;;
49326;SDS011;35819;44.498;0.166;2022-09-25T17:38:38;0.82;;;0.65;;
49326;SDS011;35819;44.498;0.166;2022-09-25T17:41:05;1.40;;;1.27;;
49326;SDS011;35819;44.498;0.166;2022-09-25T17:43:51;2.65;;;1.60;;
49326;SDS011;35819;44.498;0.166;2022-09-25T17:46:16;3.38;;;1.23;;
49326;SDS011;35819;44.498;0.166;2022-09-25T17:48:43;3.97;;;1.40;;
49326;SDS011;35819;44.498;0.166;2022-09-25T17:51:10;4.13;;;2.22;;
49326;SDS011;35819;44.498;0.166;2022-09-25T17:53:40;1.67;;;1.58;;
49326;SDS011;35819;44.498;0.166;2022-09-25T17:56:05;3.92;;;1.55;;
49326;SDS011;35819;44.498;0.166;2022-09-25T17:58:31;2.95;;;2.65;;
49326;SDS011;35819;44.498;0.166;2022-09-25T18:00:59;2.00;;;0.95;;
49326;SDS011;35819;44.498;0.166;2022-09-25T18:03:25;3.60;;;1.80;;
49326;SDS011;35819;44.498;0.166;2022-09-25T18:05:52;3.72;;;1.88;;
49326;SDS011;35819;44.498;0.166;2022-09-25T18:08:22;2.30;;;1.88;;
49326;SDS011;35819;44.498;0.166;2022-09-25T18:10:51;1.20;;;1.13;;
49326;SDS011;35819;44.498;0.166;2022-09-25T18:13:18;1.70;;;1.60;;
49326;SDS011;35819;44.498;0.166;2022-09-25T18:18:16;1.50;;;1.40;;
49326;SDS011;35819;44.498;0.166;2022-09-25T18:20:42;4.32;;;3.67;;
49326;SDS011;35819;44.498;0.166;2022-09-25T18:23:26;2.78;;;2.58;;
49326;SDS011;35819;44.498;0.166;2022-09-25T18:25:52;1.75;;;1.65;;
49326;SDS011;35819;44.498;0.166;2022-09-25T18:28:19;3.05;;;2.03;;
49326;SDS011;35819;44.498;0.166;2022-09-25T18:30:45;3.03;;;2.72;;
49326;SDS011;35819;44.498;0.166;2022-09-25T18:33:11;4.22;;;2.08;;
49326;SDS011;35819;44.498;0.166;2022-09-25T18:35:37;3.45;;;3.05;;
49326;SDS011;35819;44.498;0.166;2022-09-25T18:38:04;4.88;;;2.55;;
49326;SDS011;35819;44.498;0.166;2022-09-25T18:40:30;2.13;;;1.23;;
49326;SDS011;35819;44.498;0.166;2022-09-25T18:42:56;1.70;;;1.60;;
49326;SDS011;35819;44.498;0.166;2022-09-25T18:45:25;1.00;;;1.00;;
49326;SDS011;35819;44.498;0.166;2022-09-25T18:47:52;1.40;;;0.90;;
49326;SDS011;35819;44.498;0.166;2022-09-25T18:50:18;1.17;;;0.90;;
49326;SDS011;35819;44.498;0.166;2022-09-25T18:52:50;0.55;;;0.55;;
49326;SDS011;35819;44.498;0.166;2022-09-25T18:55:20;6.22;;;2.72;;
49326;SDS011;35819;44.498;0.166;2022-09-25T18:58:10;0.90;;;0.90;;
49326;SDS011;35819;44.498;0.166;2022-09-25T19:00:57;3.10;;;1.40;;
49326;SDS011;35819;44.498;0.166;2022-09-25T19:03:36;1.70;;;0.77;;
49326;SDS011;35819;44.498;0.166;2022-09-25T19:06:52;2.83;;;1.17;;
49326;SDS011;35819;44.498;0.166;2022-09-25T19:09:46;1.98;;;1.23;;
49326;SDS011;35819;44.498;0.166;2022-09-25T19:12:45;2.13;;;1.92;;
49326;SDS011;35819;44.498;0.166;2022-09-25T19:16:30;1.50;;;1.33;;
49326;SDS011;35819;44.498;0.166;2022-09-25T19:20:03;1.73;;;1.63;;
49326;SDS011;35819;44.498;0.166;2022-09-25T19:23:27;2.33;;;0.90;;
49326;SDS011;35819;44.498;0.166;2022-09-25T19:26:34;1.67;;;1.10;;
49326;SDS011;35819;44.498;0.166;2022-09-25T19:30:09;7.43;;;2.05;;
49326;SDS011;35819;44.498;0.166;2022-09-25T19:36:40;2.38;;;2.25;;
49326;SDS011;35819;44.498;0.166;2022-09-25T19:43:55;1.70;;;1.30;;
49326;SDS011;35819;44.498;0.166;2022-09-25T19:50:24;4.30;;;2.10;;
49326;SDS011;35819;44.498;0.166;2022-09-25T19:56:48;3.35;;;1.67;;
49326;SDS011;35819;44.498;0.166;2022-09-25T20:03:21;1.47;;;1.37;;
49326;SDS011;35819;44.498;0.166;2022-09-25T20:07:01;3.65;;;1.60;;
49326;SDS011;35819;44.498;0.166;2022-09-25T20:10:19;2.25;;;1.60;;
49326;SDS011;35819;44.498;0.166;2022-09-25T20:17:01;3.00;;;1.52;;
49326;SDS011;35819;44.498;0.166;2022-09-25T20:20:25;1.45;;;1.35;;
49326;SDS011;35819;44.498;0.166;2022-09-25T20:23:55;3.67;;;2.38;;
49326;SDS011;35819;44.498;0.166;2022-09-25T20:27:15;1.38;;;1.00;;
49326;SDS011;35819;44.498;0.166;2022-09-25T20:37:15;2.08;;;1.38;;
49326;SDS011;35819;44.498;0.166;2022-09-25T20:40:31;3.58;;;1.42;;
